Observations for LONDON HEATHROW, United Kingdom (EGLL)

EGLL 180250Z AUTO 16002KT 6000 NCD 01/01 Q1023 TEMPO 4500 BR
EGLL 180220Z AUTO 03002KT 9999 NCD 03/02 Q1023 NOSIG
EGLL 180150Z AUTO 13003KT 8000 NCD 02/01 Q1023 NOSIG
EGLL 180120Z AUTO 14004KT 9999 NCD 03/02 Q1023 NOSIG
EGLL 180050Z AUTO 12003KT 9999 NCD 03/02 Q1023 NOSIG
EGLL 180020Z AUTO VRB02KT 9999 NCD 04/03 Q1023 NOSIG
EGLL 172350Z AUTO 15005KT 9999 NCD 04/03 Q1023 NOSIG
EGLL 172320Z AUTO 14003KT 9999 NCD 04/03 Q1023 NOSIG
EGLL 172250Z AUTO 19004KT 150V230 9999 NCD 05/03 Q1023 NOSIG
EGLL 172220Z AUTO 22005KT 9999 OVC044 06/03 Q1023 NOSIG 
EGLL 172150Z AUTO 17005KT 140V210 9999 FEW049 05/03 Q1023 NOSIG 
EGLL 172120Z AUTO 18007KT 160V220 9999 NCD 06/03 Q1023 NOSIG
EGLL 172050Z AUTO 19006KT 160V230 9999 FEW041 SCT049 06/03 Q1023 NOSIG  
EGLL 172020Z AUTO 21007KT 180V240 9999 NCD 07/03 Q1023 NOSIG
EGLL 171950Z AUTO 21008KT 180V250 9999 SCT038 07/03 Q1023 NOSIG 
EGLL 171920Z AUTO 20009KT 160V250 9999 BKN035 BKN041 07/03 Q1023 NOSIG  
EGLL 171850Z AUTO 18007KT 160V240 9999 FEW037 07/02 Q1023 NOSIG 
EGLL 171820Z AUTO 21007KT 170V260 9999 BKN047 08/02 Q1023 NOSIG 
EGLL 171750Z AUTO 21006KT 190V270 9999 BKN045 09/01 Q1022 NOSIG 
EGLL 171720Z AUTO 20006KT 170V250 9999 BKN043 09/01 Q1022 NOSIG 
EGLL 171650Z AUTO 22007KT 9999 BKN041 08/01 Q1022 NOSIG 
EGLL 171620Z AUTO 23007KT 9999 NCD 09/00 Q1022 NOSIG
EGLL 171550Z AUTO 23008KT 9999 NCD 10/01 Q1022 NOSIG
EGLL 171520Z AUTO 24007KT 9999 FEW043 10/01 Q1022 NOSIG 
EGLL 171450Z AUTO 21008KT 170V240 9999 FEW043 10/01 Q1022 NOSIG 
EGLL 171420Z AUTO 25008KT 210V280 9999 SCT042 11/01 Q1022 NOSIG 
EGLL 171350Z AUTO 23008KT 180V260 9999 SCT039 10/01 Q1022 NOSIG 
EGLL 171320Z AUTO 22006KT 170V260 9999 NCD 10/01 Q1022 NOSIG
EGLL 171250Z AUTO 21006KT 150V260 9999 NCD 10/01 Q1022 NOSIG
EGLL 171220Z AUTO 20007KT 150V240 9999 NCD 10/02 Q1023 NOSIG
EGLL 171150Z AUTO 21006KT 140V260 9999 NCD 09/03 Q1023 NOSIG
EGLL 171120Z AUTO 19006KT 150V240 9999 NCD 08/04 Q1023 NOSIG
EGLL 171050Z AUTO 21005KT 130V290 9999 NCD 07/04 Q1023 NOSIG
EGLL 171020Z AUTO VRB03KT 9999 NCD 07/03 Q1022 NOSIG
EGLL 170950Z AUTO VRB03KT 9999 NCD 06/04 Q1022 NOSIG
EGLL 170920Z AUTO VRB03KT 9999 NCD 05/03 Q1022 NOSIG
EGLL 170850Z AUTO VRB03KT 9999 NCD 03/03 Q1022 NOSIG
EGLL 170820Z AUTO VRB01KT 9999 NCD 02/01 Q1022 NOSIG
EGLL 170750Z AUTO VRB02KT 8000 NCD 02/01 Q1022 NOSIG
EGLL 170720Z AUTO VRB02KT 9000 NCD 02/01 Q1022 NOSIG
EGLL 170650Z AUTO 11005KT 070V170 9999 NCD 02/01 Q1021 NOSIG
EGLL 170620Z AUTO VRB03KT 9999 NCD 02/01 Q1021 NOSIG
EGLL 170550Z AUTO VRB02KT 9000 NCD 02/01 Q1021 NOSIG
EGLL 170520Z AUTO 02002KT 9999 NCD 02/01 Q1021 NOSIG
EGLL 170450Z AUTO VRB02KT 9999 NCD 02/01 Q1021 NOSIG
EGLL 170420Z AUTO 05003KT 9999 NCD 02/01 Q1021 NOSIG
EGLL 170350Z AUTO 04003KT 9999 NCD 02/01 Q1021 NOSIG
EGLL 170320Z AUTO 06003KT 9999 NCD 02/01 Q1021 NOSIG
EGLL 170250Z AUTO 07002KT 9999 NCD 02/01 Q1021 NOSIG
EGLL 170220Z AUTO 06002KT 9999 NCD 02/01 Q1022